createdAt,value
2022-12-28T00:01:11.257Z,5.21
2022-12-28T00:03:38.645Z,5.12
2022-12-28T00:06:06.482Z,5.06
2022-12-28T00:08:34.162Z,5.14
2022-12-28T00:11:08.596Z,4.91
2022-12-28T00:13:38.040Z,4.89
2022-12-28T00:16:08.567Z,5.06
2022-12-28T00:18:36.559Z,5.24
2022-12-28T00:21:04.159Z,5.07
2022-12-28T00:23:31.808Z,5.05
2022-12-28T00:26:06.201Z,5.09
2022-12-28T00:28:34.040Z,5.05
2022-12-28T00:31:01.363Z,5.09
2022-12-28T00:33:28.889Z,4.98
2022-12-28T00:35:56.526Z,5.10
2022-12-28T00:38:23.958Z,5.10
2022-12-28T00:40:51.316Z,4.99
2022-12-28T00:43:18.642Z,4.74
2022-12-28T00:45:46.659Z,4.96
2022-12-28T00:48:14.056Z,4.92
2022-12-28T00:50:42.004Z,4.77
2022-12-28T00:53:10.340Z,4.87
2022-12-28T00:55:37.834Z,4.81
2022-12-28T00:58:06.894Z,4.94
2022-12-28T01:00:34.330Z,4.86
2022-12-28T01:03:01.880Z,4.58
2022-12-28T01:05:29.535Z,4.56
2022-12-28T01:07:57.052Z,4.59
2022-12-28T01:10:24.654Z,4.88
2022-12-28T01:12:52.155Z,4.80
2022-12-28T01:15:20.428Z,4.67
2022-12-28T01:17:47.835Z,4.57
2022-12-28T01:20:15.222Z,4.68
2022-12-28T01:22:42.892Z,4.79
2022-12-28T01:25:13.249Z,4.74
2022-12-28T01:27:40.662Z,4.55
2022-12-28T01:30:08.308Z,4.44
2022-12-28T01:32:38.521Z,4.54
2022-12-28T01:35:06.223Z,4.59
2022-12-28T01:37:35.572Z,4.53
2022-12-28T01:40:03.577Z,4.52
2022-12-28T01:42:33.015Z,4.53
2022-12-28T01:45:11.108Z,4.42
2022-12-28T01:47:38.630Z,4.13
2022-12-28T01:50:08.280Z,4.35
2022-12-28T01:52:37.104Z,4.21
2022-12-28T01:55:09.312Z,4.37
2022-12-28T01:58:12.604Z,4.45
2022-12-28T02:00:41.056Z,4.41
2022-12-28T02:03:17.468Z,4.30
2022-12-28T02:05:48.756Z,4.13
2022-12-28T02:08:19.889Z,4.51
2022-12-28T02:10:47.329Z,4.33
2022-12-28T02:13:16.189Z,4.28
2022-12-28T02:15:43.629Z,4.17
2022-12-28T02:18:13.468Z,4.32
2022-12-28T02:20:59.547Z,4.22
2022-12-28T02:23:26.982Z,4.13
2022-12-28T02:25:59.379Z,3.67
2022-12-28T02:28:26.859Z,4.05
2022-12-28T02:31:00.082Z,4.07
2022-12-28T02:33:29.455Z,3.87
2022-12-28T02:36:05.648Z,3.87
2022-12-28T02:38:59.444Z,4.05
2022-12-28T02:41:26.882Z,4.09
2022-12-28T02:43:54.496Z,4.30
2022-12-28T02:46:41.834Z,4.25
2022-12-28T02:49:42.822Z,4.22
2022-12-28T02:52:29.078Z,3.98
2022-12-28T02:55:29.540Z,4.11
2022-12-28T02:58:06.173Z,4.15
2022-12-28T03:00:46.224Z,4.35
2022-12-28T03:03:23.264Z,4.22
2022-12-28T03:06:30.122Z,4.07
2022-12-28T03:09:06.558Z,4.06
2022-12-28T03:11:37.910Z,4.11
2022-12-28T03:14:06.952Z,4.04
2022-12-28T03:16:58.631Z,4.23
2022-12-28T03:19:48.521Z,4.18
2022-12-28T03:22:34.683Z,3.63
2022-12-28T03:25:21.292Z,4.01
2022-12-28T03:28:07.887Z,4.07
2022-12-28T03:30:55.329Z,3.76
2022-12-28T03:33:23.513Z,3.87
2022-12-28T03:35:53.539Z,3.93
2022-12-28T03:38:27.649Z,3.92
2022-12-28T03:40:57.388Z,3.96
2022-12-28T03:43:43.953Z,3.71
2022-12-28T03:46:15.537Z,3.80
2022-12-28T03:48:44.493Z,3.70
2022-12-28T03:51:12.951Z,3.86
2022-12-28T03:53:41.461Z,3.83
2022-12-28T03:56:15.597Z,4.01
2022-12-28T03:58:44.829Z,3.82
2022-12-28T04:01:15.826Z,3.90
2022-12-28T04:03:44.291Z,3.85
2022-12-28T04:06:13.181Z,3.83
2022-12-28T04:08:43.695Z,3.87
2022-12-28T04:11:11.804Z,3.85
2022-12-28T04:13:39.334Z,3.88
2022-12-28T04:16:10.254Z,3.94
2022-12-28T08:19:18.849Z,5.15
2022-12-28T08:21:46.441Z,5.35
2022-12-28T08:24:14.721Z,5.19
2022-12-28T08:26:42.387Z,5.25
2022-12-28T08:29:11.478Z,5.44
2022-12-28T08:31:39.767Z,5.63
2022-12-28T08:34:07.730Z,5.59
2022-12-28T08:36:35.292Z,5.44
2022-12-28T08:39:02.682Z,5.60
2022-12-28T08:41:30.139Z,5.70
2022-12-28T08:43:57.740Z,5.83
2022-12-28T08:46:26.343Z,6.03
2022-12-28T08:48:54.130Z,6.07
2022-12-28T08:51:22.554Z,6.61
2022-12-28T08:53:50.199Z,6.92
2022-12-28T08:56:20.591Z,6.91
2022-12-28T08:58:49.948Z,6.76
2022-12-28T09:01:18.123Z,7.28
2022-12-28T09:03:46.479Z,7.79
2022-12-28T09:06:14.696Z,8.44
2022-12-28T09:08:42.785Z,7.19
2022-12-28T09:11:18.852Z,7.14
2022-12-28T09:13:46.363Z,7.20
2022-12-28T09:16:14.630Z,7.33
2022-12-28T09:18:42.474Z,7.12
2022-12-28T09:21:14.092Z,6.26
2022-12-28T09:23:41.806Z,5.90
2022-12-28T09:26:10.145Z,5.79
2022-12-28T09:28:37.707Z,6.12
2022-12-28T09:31:05.642Z,6.30
2022-12-28T09:34:33.763Z,5.91
2022-12-28T09:36:43.169Z,6.08
2022-12-28T09:39:14.261Z,5.67
2022-12-28T09:41:41.780Z,5.73
2022-12-28T09:44:18.918Z,5.90
2022-12-28T09:47:04.172Z,6.11
2022-12-28T09:49:50.491Z,6.04
2022-12-28T09:52:18.325Z,6.25
2022-12-28T09:54:45.725Z,6.04
2022-12-28T09:57:16.886Z,5.99
2022-12-28T09:59:44.497Z,6.18
2022-12-28T10:02:18.195Z,6.13
2022-12-28T10:04:49.538Z,5.99
2022-12-28T10:07:17.135Z,6.16
2022-12-28T10:09:44.459Z,6.08
2022-12-28T10:12:21.834Z,5.96
2022-12-28T10:14:49.537Z,6.24
2022-12-28T10:17:17.191Z,6.27
2022-12-28T10:19:45.711Z,6.26
2022-12-28T10:22:14.651Z,5.74
2022-12-28T10:24:42.619Z,5.38
2022-12-28T10:27:14.197Z,5.25
2022-12-28T10:29:41.537Z,5.16
2022-12-28T10:32:09.724Z,5.29
2022-12-28T10:34:37.528Z,5.50
2022-12-28T10:37:14.206Z,5.79
2022-12-28T10:39:47.845Z,5.72
2022-12-28T10:42:23.468Z,5.12
2022-12-28T10:44:50.907Z,5.20
2022-12-28T10:47:25.128Z,5.49
2022-12-28T10:52:41.823Z,5.83
2022-12-28T10:55:35.644Z,5.82
2022-12-28T10:58:33.125Z,5.42
2022-12-28T11:01:03.394Z,5.45
2022-12-28T11:03:31.999Z,5.46
2022-12-28T11:06:28.181Z,5.27
2022-12-28T11:09:04.099Z,5.10
2022-12-28T11:11:32.746Z,5.15
2022-12-28T11:14:23.034Z,5.25
2022-12-28T11:16:50.699Z,5.29
2022-12-28T11:19:18.228Z,5.50
2022-12-28T11:21:45.975Z,5.36
2022-12-28T11:24:17.043Z,5.73
2022-12-28T11:26:48.574Z,5.52
2022-12-28T11:29:17.218Z,5.52
2022-12-28T11:31:47.620Z,5.54
2022-12-28T11:34:19.164Z,5.57
2022-12-28T11:36:46.730Z,5.64
2022-12-28T11:39:26.047Z,5.83
2022-12-28T11:42:19.493Z,5.50
2022-12-28T11:44:41.235Z,5.37
2022-12-28T11:47:17.630Z,5.49
2022-12-28T11:49:45.356Z,5.58
2022-12-28T11:52:17.353Z,5.72
2022-12-28T11:54:53.900Z,5.66
2022-12-28T11:57:37.294Z,5.52
2022-12-28T12:00:21.836Z,5.84
2022-12-28T12:02:57.198Z,5.60
2022-12-28T12:05:37.210Z,5.50
2022-12-28T12:08:16.896Z,5.63
2022-12-28T12:10:45.556Z,5.61
2022-12-28T12:13:25.432Z,5.41
2022-12-28T12:16:01.623Z,5.47
2022-12-28T12:18:29.875Z,5.68
2022-12-28T12:21:08.887Z,5.72
2022-12-28T12:23:41.154Z,5.82
2022-12-28T12:26:21.395Z,5.58
2022-12-28T12:28:49.964Z,5.55
2022-12-28T12:31:43.689Z,5.71
2022-12-28T12:34:20.138Z,5.97
2022-12-28T12:37:02.210Z,5.74
2022-12-28T12:39:33.671Z,5.91
2022-12-28T12:42:13.653Z,5.85
2022-12-28T12:44:56.462Z,5.76
2022-12-28T12:47:39.239Z,5.78
2022-12-28T12:50:36.292Z,5.47
2022-12-28T12:53:16.648Z,5.07
2022-12-28T12:55:59.730Z,5.02
2022-12-28T12:58:27.212Z,5.27
2022-12-28T13:01:15.034Z,5.22
2022-12-28T13:03:46.164Z,5.28
2022-12-28T13:06:14.835Z,5.15
2022-12-28T13:08:42.933Z,5.19
2022-12-28T13:11:11.093Z,5.00
2022-12-28T13:13:39.135Z,5.07
2022-12-28T13:16:11.301Z,5.19
2022-12-28T13:18:46.346Z,5.29
2022-12-28T13:21:18.190Z,5.23
2022-12-28T13:23:45.932Z,5.10
2022-12-28T13:26:14.199Z,5.07
2022-12-28T13:28:56.147Z,4.80
2022-12-28T13:31:24.342Z,4.89
2022-12-28T13:33:58.311Z,4.79
2022-12-28T13:36:26.058Z,5.04
2022-12-28T17:00:30.474Z,4.12
2022-12-28T17:02:58.317Z,3.88
2022-12-28T17:05:25.945Z,3.98
2022-12-28T17:07:53.338Z,3.61
2022-12-28T17:10:21.007Z,3.79
2022-12-28T17:12:48.683Z,3.61
2022-12-28T17:15:16.477Z,3.51
2022-12-28T17:17:43.962Z,3.82
2022-12-28T17:20:11.638Z,4.03
2022-12-28T17:22:39.134Z,3.88
2022-12-28T17:25:07.276Z,3.79
2022-12-28T17:27:36.643Z,3.56
2022-12-28T17:30:04.852Z,3.57
2022-12-28T17:32:34.527Z,3.40
2022-12-28T17:35:02.140Z,3.54
2022-12-28T17:37:30.138Z,3.55
2022-12-28T17:39:58.222Z,3.64
2022-12-28T17:42:25.994Z,3.69
2022-12-28T17:44:54.120Z,3.76
2022-12-28T17:47:21.656Z,3.63
2022-12-28T17:49:49.135Z,3.70
2022-12-28T17:52:21.067Z,3.37
2022-12-28T17:54:48.787Z,3.71
2022-12-28T17:57:16.766Z,3.39
2022-12-28T17:59:44.477Z,3.65
2022-12-28T18:02:13.174Z,3.79
2022-12-28T18:04:40.867Z,3.82
2022-12-28T18:07:08.426Z,3.66
2022-12-28T18:09:36.806Z,3.76
2022-12-28T18:12:04.700Z,3.59
2022-12-28T18:14:32.804Z,3.72
2022-12-28T18:17:01.200Z,3.83
2022-12-28T18:19:29.270Z,3.41
2022-12-28T18:21:56.769Z,3.43
2022-12-28T18:24:25.401Z,3.58
2022-12-28T18:26:53.235Z,3.75
2022-12-28T18:29:21.019Z,3.96
2022-12-28T18:31:50.008Z,3.73
2022-12-28T18:34:17.656Z,3.77
2022-12-28T18:36:52.488Z,3.67
2022-12-28T18:39:20.029Z,3.62
2022-12-28T18:41:49.119Z,3.59
2022-12-28T18:44:31.037Z,3.79
2022-12-28T18:47:05.678Z,3.79
2022-12-28T18:49:47.055Z,3.82
2022-12-28T18:52:24.075Z,3.93
2022-12-28T18:55:06.490Z,3.77
2022-12-28T19:00:28.622Z,3.58
2022-12-28T19:02:56.229Z,3.58
2022-12-28T19:05:24.818Z,3.60
2022-12-28T19:07:52.428Z,3.76
2022-12-28T19:10:21.327Z,3.76
2022-12-28T19:12:59.594Z,3.66
2022-12-28T19:15:30.268Z,3.37
2022-12-28T19:18:00.998Z,3.58
2022-12-28T19:20:29.473Z,3.68
2022-12-28T19:22:57.598Z,3.42
2022-12-28T19:25:26.238Z,3.53
2022-12-28T19:27:57.270Z,3.40
2022-12-28T19:30:24.676Z,3.30
2022-12-28T19:32:53.002Z,3.17
2022-12-28T19:35:21.636Z,3.11
2022-12-28T19:37:49.154Z,3.53
2022-12-28T19:40:16.912Z,3.35
2022-12-28T19:42:44.430Z,3.34
2022-12-28T19:45:12.170Z,3.04
2022-12-28T19:47:39.743Z,3.39
2022-12-28T19:50:07.497Z,3.51
2022-12-28T19:52:35.391Z,3.27
2022-12-28T19:55:02.736Z,3.36
2022-12-28T19:57:33.287Z,3.50
2022-12-28T20:00:00.992Z,3.33
2022-12-28T20:02:28.395Z,3.22
2022-12-28T20:04:56.713Z,3.33
2022-12-28T20:07:24.297Z,3.28
2022-12-28T20:09:51.694Z,3.26
2022-12-28T20:12:22.549Z,3.19
2022-12-28T20:14:52.409Z,3.20
2022-12-28T20:17:19.862Z,3.22
2022-12-28T20:19:47.294Z,2.99
2022-12-28T20:22:14.834Z,2.92
2022-12-28T20:24:42.263Z,2.85
2022-12-28T20:27:09.632Z,2.72
2022-12-28T20:29:37.029Z,2.97
2022-12-28T20:32:04.659Z,2.96
2022-12-28T20:34:34.680Z,2.61
2022-12-28T20:37:02.262Z,2.87
2022-12-28T20:39:29.803Z,2.71
2022-12-28T20:42:17.575Z,2.68
2022-12-28T20:44:45.165Z,2.61
2022-12-28T20:47:13.174Z,2.81
2022-12-28T20:49:44.152Z,2.72
2022-12-28T20:52:22.059Z,2.61
2022-12-28T20:54:56.329Z,2.86
2022-12-28T20:57:28.390Z,2.76
2022-12-28T21:00:00.004Z,2.57
2022-12-28T21:02:28.028Z,2.58
2022-12-28T21:05:00.993Z,2.83
2022-12-28T21:07:30.621Z,2.42
2022-12-28T21:10:02.089Z,2.62
2022-12-28T21:12:40.143Z,2.49
2022-12-28T21:15:11.321Z,2.23
2022-12-28T21:17:38.787Z,2.23
2022-12-28T21:20:07.527Z,2.32
2022-12-28T21:22:50.505Z,2.37
2022-12-28T21:25:25.285Z,2.36
2022-12-28T21:27:53.183Z,2.40
2022-12-28T21:30:25.783Z,2.47
2022-12-28T21:32:54.335Z,2.54
2022-12-28T21:35:27.820Z,2.60
2022-12-28T21:38:02.592Z,2.55
2022-12-28T21:40:36.623Z,2.48
2022-12-28T21:43:04.111Z,2.41
2022-12-28T21:45:31.657Z,2.66
2022-12-28T21:47:59.612Z,2.48
2022-12-28T21:50:27.210Z,2.35
2022-12-28T21:52:54.616Z,2.26
2022-12-28T21:55:40.666Z,2.35
2022-12-28T21:58:08.366Z,2.28
2022-12-28T22:01:08.210Z,2.44
2022-12-28T22:03:54.759Z,2.27
2022-12-28T22:06:22.243Z,2.34
2022-12-28T22:09:08.397Z,2.40
2022-12-28T22:11:55.260Z,2.09
2022-12-28T22:14:22.814Z,2.26
2022-12-28T22:16:50.690Z,2.16
2022-12-28T22:19:19.515Z,2.37
2022-12-28T22:21:49.237Z,2.43
2022-12-28T22:24:18.731Z,2.53
2022-12-28T22:26:46.179Z,2.23
2022-12-28T22:29:13.883Z,2.37
2022-12-28T22:31:41.958Z,2.35
2022-12-28T22:34:12.259Z,2.27
2022-12-28T22:36:39.663Z,2.24
2022-12-28T22:39:07.138Z,2.11
2022-12-28T22:41:37.186Z,2.07
2022-12-28T22:44:06.137Z,2.16
2022-12-28T22:46:33.816Z,2.30
2022-12-28T22:49:01.383Z,2.34
2022-12-28T22:51:28.960Z,2.30
2022-12-28T22:53:57.004Z,2.35
2022-12-28T22:56:24.355Z,2.25
2022-12-28T22:58:51.688Z,2.13
2022-12-28T23:01:19.929Z,2.02
2022-12-28T23:03:48.035Z,2.18
2022-12-28T23:06:16.329Z,2.25
2022-12-28T23:08:45.605Z,2.09
2022-12-28T23:11:32.589Z,2.18
2022-12-28T23:14:20.489Z,2.27
2022-12-28T23:16:48.171Z,2.11
2022-12-28T23:19:34.270Z,2.13
2022-12-28T23:22:20.923Z,2.23
2022-12-28T23:25:07.146Z,2.32
2022-12-28T23:27:35.854Z,1.95
2022-12-28T23:30:03.957Z,2.06
2022-12-28T23:32:32.973Z,2.17
2022-12-28T23:35:00.552Z,1.88
2022-12-28T23:37:28.226Z,1.80
2022-12-28T23:39:55.636Z,1.83
2022-12-28T23:42:23.521Z,1.88
2022-12-28T23:44:50.931Z,2.08
2022-12-28T23:47:19.013Z,2.03
2022-12-28T23:49:46.528Z,1.92
2022-12-28T23:52:13.892Z,1.60
2022-12-28T23:54:42.374Z,1.96
2022-12-28T23:57:09.971Z,2.17
2022-12-28T23:59:37.526Z,2.24
